Time;durP1;ratioP1;P1;durP2;ratioP2;P2;SDS_P1;SDS_P2;PMS_P1;PMS_P2;Temp;Humidity;BMP_temperature;BMP_pressure;BME280_temperature;BME280_humidity;BME280_pressure;Samples;Min_cycle;Max_cycle;Signal;HPM_P1;HPM_P2
2021/01/12 00:01:49;;;;;;;10.58;7.92;;;;;;;-0.72;79.82;100776.69;1771209;80;20973;-69
2021/01/12 00:04:18;;;;;;;9.75;8.08;;;;;;;-0.70;79.87;100777.97;1771021;81;21472;-69
2021/01/12 00:06:51;;;;;;;10.35;7.05;;;;;;;-0.69;79.96;100786.08;1770979;81;20950;-69
2021/01/12 00:09:19;;;;;;;14.25;8.10;;;;;;;-0.67;79.96;100781.81;1771054;80;20974;-70
2021/01/12 00:11:48;;;;;;;7.87;7.05;;;;;;;-0.64;79.85;100778.41;1770989;81;21360;-69
2021/01/12 00:14:32;;;;;;;8.60;7.47;;;;;;;-0.65;79.77;100780.54;1770933;81;20982;-69
2021/01/12 00:17:04;;;;;;;9.10;7.22;;;;;;;-0.65;79.70;100784.38;1770955;81;20986;-69
2021/01/12 00:19:34;;;;;;;11.65;9.33;;;;;;;-0.65;79.69;100786.94;1770984;81;21013;-69
2021/01/12 00:22:07;;;;;;;16.07;11.88;;;;;;;-0.64;79.62;100786.08;1771050;80;20946;-69
2021/01/12 00:24:35;;;;;;;19.57;14.00;;;;;;;-0.66;79.59;100779.69;1771077;81;22060;-69
2021/01/12 00:27:05;;;;;;;17.85;13.00;;;;;;;-0.67;79.60;100786.50;1770893;81;20974;-69
2021/01/12 00:29:33;;;;;;;14.47;11.25;;;;;;;-0.65;79.64;100777.55;1771042;81;21458;-69
2021/01/12 00:32:02;;;;;;;13.00;9.78;;;;;;;-0.65;79.63;100784.38;1770979;81;20950;-69
2021/01/12 00:34:32;;;;;;;10.35;8.65;;;;;;;-0.65;79.72;100786.94;1770998;81;21025;-70
2021/01/12 00:37:01;;;;;;;10.20;8.00;;;;;;;-0.65;79.64;100789.48;1750116;81;21147;-67
2021/01/12 00:39:30;;;;;;;10.28;7.70;;;;;;;-0.66;79.54;100784.80;1770928;81;21013;-67
2021/01/12 00:41:59;;;;;;;11.95;8.35;;;;;;;-0.66;79.50;100780.97;1771072;80;21456;-69
2021/01/12 00:44:27;;;;;;;8.75;7.28;;;;;;;-0.65;79.58;100781.81;1770933;81;21532;-69
2021/01/12 00:46:56;;;;;;;9.88;8.40;;;;;;;-0.64;79.57;100786.08;1771080;81;21476;-69
2021/01/12 00:49:25;;;;;;;10.65;8.23;;;;;;;-0.62;79.63;100784.38;1770963;81;21192;-70
2021/01/12 00:51:54;;;;;;;10.23;7.95;;;;;;;-0.61;79.64;100777.98;1770922;81;20985;-69
2021/01/12 00:54:23;;;;;;;10.35;8.33;;;;;;;-0.59;79.52;100779.27;1770955;81;20970;-69
2021/01/12 00:56:53;;;;;;;9.63;8.58;;;;;;;-0.58;79.44;100780.55;1770932;81;20998;-69
2021/01/12 00:59:21;;;;;;;10.58;9.03;;;;;;;-0.56;79.31;100775.44;1770973;81;21021;-69
2021/01/12 01:01:49;;;;;;;10.58;8.25;;;;;;;-0.55;79.21;100778.42;1770950;80;21411;-69
2021/01/12 01:04:18;;;;;;;10.58;8.35;;;;;;;-0.53;79.14;100776.30;1770803;80;20970;-69
2021/01/12 01:06:47;;;;;;;11.55;8.98;;;;;;;-0.51;79.02;100777.16;1770927;81;21369;-69
2021/01/12 01:09:16;;;;;;;15.40;10.65;;;;;;;-0.49;78.90;100775.45;1725631;81;20966;-69
2021/01/12 01:11:48;;;;;;;13.83;11.43;;;;;;;-0.47;78.69;100769.91;1770971;81;20934;-69
2021/01/12 01:14:17;;;;;;;19.05;14.25;;;;;;;-0.46;78.50;100769.06;1771071;81;22222;-69
2021/01/12 01:16:46;;;;;;;15.80;13.10;;;;;;;-0.44;78.28;100771.63;1770929;81;21021;-69
2021/01/12 01:19:15;;;;;;;13.75;11.88;;;;;;;-0.43;78.14;100769.48;1770873;81;20946;-69
2021/01/12 01:21:50;;;;;;;15.65;13.03;;;;;;;-0.44;78.01;100773.75;1771016;81;21493;-69
2021/01/12 01:24:20;;;;;;;11.97;10.75;;;;;;;-0.44;77.96;100772.47;1770932;81;21057;-69
2021/01/12 01:26:52;;;;;;;12.23;10.88;;;;;;;-0.44;78.02;100763.95;1770933;81;21649;-69
2021/01/12 01:29:21;;;;;;;10.95;9.73;;;;;;;-0.43;78.08;100766.50;1770901;81;20957;-69
2021/01/12 01:31:50;;;;;;;10.98;9.03;;;;;;;-0.43;78.07;100772.91;1770917;80;20958;-69
2021/01/12 01:34:19;;;;;;;10.45;8.63;;;;;;;-0.41;78.02;100769.06;1770903;81;20974;-70
2021/01/12 01:36:48;;;;;;;11.12;8.78;;;;;;;-0.41;78.05;100765.23;1770973;81;20930;-70
2021/01/12 01:39:16;;;;;;;10.15;8.10;;;;;;;-0.41;77.95;100759.69;1770877;81;21145;-69
2021/01/12 01:41:45;;;;;;;10.15;7.83;;;;;;;-0.40;77.86;100763.09;1770854;81;20942;-69
2021/01/12 01:44:13;;;;;;;10.10;8.40;;;;;;;-0.39;77.74;100763.06;1770864;81;21005;-69
2021/01/12 01:46:42;;;;;;;12.18;8.85;;;;;;;-0.38;77.70;100751.12;1770990;81;21523;-69
2021/01/12 01:49:12;;;;;;;10.95;8.90;;;;;;;-0.37;77.70;100760.08;1770937;81;20985;-69
2021/01/12 01:51:41;;;;;;;12.05;10.03;;;;;;;-0.36;77.59;100759.23;1749769;81;21200;-69
2021/01/12 01:54:11;;;;;;;14.33;11.33;;;;;;;-0.36;77.63;100760.51;1770876;80;21025;-69
2021/01/12 01:56:39;;;;;;;22.35;14.07;;;;;;;-0.36;77.63;100758.38;1770910;81;21001;-69
2021/01/12 01:59:09;;;;;;;20.62;12.85;;;;;;;-0.36;77.54;100757.09;1770874;81;21025;-68
2021/01/12 02:01:37;;;;;;;18.45;11.97;;;;;;;-0.36;77.43;100751.98;1770980;81;20938;-68
2021/01/12 02:04:17;;;;;;;14.40;10.65;;;;;;;-0.38;77.44;100754.53;1758444;80;22158;-68
2021/01/12 02:06:47;;;;;;;15.65;10.82;;;;;;;-0.38;77.51;100753.26;1752769;81;21376;-68
2021/01/12 02:09:51;;;;;;;11.93;8.90;;;;;;;-0.37;77.45;100751.55;1752861;81;21372;-68
2021/01/12 02:12:42;;;;;;;14.35;9.55;;;;;;;-0.37;77.48;100745.16;1752875;81;20948;-68
2021/01/12 02:15:11;;;;;;;12.03;9.05;;;;;;;-0.37;77.31;100748.99;1752849;81;21591;-68
2021/01/12 02:17:41;;;;;;;12.20;9.35;;;;;;;-0.38;77.19;100748.14;1752787;81;21200;-68
2021/01/12 02:20:14;;;;;;;13.05;10.05;;;;;;;-0.37;77.13;100738.33;1752842;81;21557;-68
2021/01/12 02:22:50;;;;;;;14.00;9.93;;;;;;;-0.37;77.02;100743.88;1752929;81;21009;-69
2021/01/12 02:25:19;;;;;;;11.30;9.53;;;;;;;-0.37;76.97;100742.59;1743707;81;21660;-68
2021/01/12 02:27:47;;;;;;;11.57;9.90;;;;;;;-0.37;76.91;100737.48;1752865;81;21479;-68
2021/01/12 02:30:18;;;;;;;11.85;9.43;;;;;;;-0.37;76.89;100739.61;1752844;81;22173;-68
2021/01/12 02:32:46;;;;;;;10.90;8.83;;;;;;;-0.36;76.88;100735.34;1752880;81;21482;-68
2021/01/12 02:35:14;;;;;;;12.15;8.80;;;;;;;-0.35;76.81;100729.38;1752833;81;21486;-68
2021/01/12 02:37:44;;;;;;;9.43;8.38;;;;;;;-0.34;76.87;100733.64;1752863;81;21546;-68
2021/01/12 02:40:14;;;;;;;11.73;8.90;;;;;;;-0.35;76.94;100729.38;1752806;82;21574;-68
2021/01/12 02:42:43;;;;;;;12.68;9.15;;;;;;;-0.36;76.86;100737.48;1752874;82;22064;-69
2021/01/12 02:45:15;;;;;;;11.90;9.15;;;;;;;-0.36;76.88;100731.52;1752695;82;20969;-68
2021/01/12 02:47:44;;;;;;;11.48;9.53;;;;;;;-0.35;76.95;100741.74;1752822;82;20932;-68
2021/01/12 02:50:15;;;;;;;12.82;9.53;;;;;;;-0.34;76.79;100734.49;1752797;81;20996;-68
2021/01/12 02:52:43;;;;;;;12.68;9.30;;;;;;;-0.32;76.57;100746.44;1753033;81;21466;-68
2021/01/12 02:55:13;;;;;;;11.63;8.90;;;;;;;-0.31;76.50;100740.47;1753007;81;22524;-68
2021/01/12 02:57:41;;;;;;;11.40;9.30;;;;;;;-0.32;76.31;100742.17;1752905;81;20996;-68
2021/01/12 03:00:15;;;;;;;11.40;8.75;;;;;;;-0.31;76.34;100746.44;1752973;81;21558;-69
2021/01/12 03:02:43;;;;;;;12.68;9.58;;;;;;;-0.29;76.31;100748.56;1753032;81;20997;-70
2021/01/12 03:05:12;;;;;;;9.80;8.70;;;;;;;-0.28;76.28;100748.14;1770882;80;21456;-70
2021/01/12 03:07:41;;;;;;;9.80;8.43;;;;;;;-0.27;75.97;100747.29;1771013;81;21366;-69
2021/01/12 03:10:11;;;;;;;10.10;8.80;;;;;;;-0.28;75.58;100754.11;1771030;81;21464;-69
2021/01/12 03:12:39;;;;;;;11.73;8.75;;;;;;;-0.30;75.39;100754.97;1771039;81;21037;-69
2021/01/12 03:15:10;;;;;;;10.53;8.75;;;;;;;-0.34;75.40;100751.12;1770940;81;20891;-69
2021/01/12 03:17:39;;;;;;;10.88;8.45;;;;;;;-0.33;75.40;100754.54;1771138;80;21053;-69
2021/01/12 03:20:10;;;;;;;12.28;8.90;;;;;;;-0.32;75.47;100751.12;1770950;81;21354;-69
2021/01/12 03:22:41;;;;;;;12.68;8.83;;;;;;;-0.30;75.47;100754.97;1771097;81;21532;-69
2021/01/12 03:25:11;;;;;;;11.70;9.58;;;;;;;-0.30;75.38;100751.98;1770964;79;21029;-69
2021/01/12 03:27:39;;;;;;;14.15;9.40;;;;;;;-0.32;75.35;100749.84;1770959;80;21048;-69
2021/01/12 03:30:09;;;;;;;17.15;11.73;;;;;;;-0.32;75.43;100748.56;1771167;81;21499;-69
2021/01/12 03:32:37;;;;;;;16.15;11.03;;;;;;;-0.32;75.47;100745.16;1770979;81;21198;-69
2021/01/12 03:35:08;;;;;;;12.63;10.40;;;;;;;-0.32;75.45;100743.88;1770969;81;20965;-69
2021/01/12 03:37:37;;;;;;;15.15;10.82;;;;;;;-0.34;75.27;100738.76;1771039;81;20942;-69
2021/01/12 03:40:06;;;;;;;13.88;9.70;;;;;;;-0.34;75.29;100728.52;1770968;80;20922;-69
2021/01/12 03:42:35;;;;;;;14.33;10.82;;;;;;;-0.34;75.17;100733.64;1771119;81;21338;-69
2021/01/12 03:45:04;;;;;;;13.13;9.60;;;;;;;-0.35;75.17;100722.55;1770945;81;21327;-69
2021/01/12 03:47:34;;;;;;;12.10;9.30;;;;;;;-0.33;75.17;100725.11;1770973;81;20981;-69
2021/01/12 03:50:05;;;;;;;11.65;8.93;;;;;;;-0.33;74.82;100720.00;1771087;81;21548;-69
2021/01/12 03:52:34;;;;;;;11.33;9.38;;;;;;;-0.32;74.80;100715.30;1771082;81;21373;-69
2021/01/12 03:55:04;;;;;;;11.33;9.08;;;;;;;-0.34;74.70;100711.47;1771015;81;21563;-69
2021/01/12 03:57:33;;;;;;;12.70;9.43;;;;;;;-0.34;74.68;100710.61;1771084;81;22151;-69
2021/01/12 04:00:03;;;;;;;12.40;9.40;;;;;;;-0.31;74.57;100713.59;1770953;81;21041;-69
2021/01/12 04:02:34;;;;;;;12.82;9.58;;;;;;;-0.31;74.48;100711.04;1770286;80;20923;-69
2021/01/12 04:05:03;;;;;;;15.88;11.08;;;;;;;-0.30;74.53;100715.30;1777276;80;21577;-69
2021/01/12 04:07:32;;;;;;;15.55;11.63;;;;;;;-0.29;74.57;100710.61;1779230;80;20954;-70
2021/01/12 04:10:00;;;;;;;12.85;9.83;;;;;;;-0.29;74.00;100711.47;1779145;80;21245;-69
2021/01/12 04:12:28;;;;;;;12.15;8.98;;;;;;;-0.30;73.71;100716.16;1779220;80;20957;-69
2021/01/12 04:14:57;;;;;;;14.30;9.85;;;;;;;-0.29;73.55;100715.73;1779203;80;20950;-69
2021/01/12 04:17:25;;;;;;;45.50;21.30;;;;;;;-0.29;73.61;100705.06;1779166;80;20949;-69
2021/01/12 04:19:54;;;;;;;95.80;33.18;;;;;;;-0.28;73.57;100702.94;1779206;80;20949;-69
2021/01/12 04:22:22;;;;;;;120.80;41.85;;;;;;;-0.27;73.34;100702.51;1779151;80;21356;-69
2021/01/12 04:24:50;;;;;;;154.03;53.08;;;;;;;-0.27;73.13;100702.51;1779188;80;21534;-69
2021/01/12 04:27:19;;;;;;;88.85;35.05;;;;;;;-0.30;73.22;100704.64;1779194;80;20898;-69
2021/01/12 04:29:48;;;;;;;47.23;23.38;;;;;;;-0.31;73.23;100705.92;1779281;80;20945;-69
2021/01/12 04:32:16;;;;;;;23.45;15.63;;;;;;;-0.32;73.36;100703.79;1779235;80;20937;-69
2021/01/12 04:34:45;;;;;;;19.62;13.60;;;;;;;-0.31;73.60;100704.64;1779276;80;21372;-69
2021/01/12 04:37:14;;;;;;;14.83;11.63;;;;;;;-0.30;74.09;100707.20;1779099;80;20945;-69
2021/01/12 04:39:42;;;;;;;20.60;12.50;;;;;;;-0.27;73.67;100712.31;1779197;80;21136;-69
2021/01/12 04:42:11;;;;;;;18.67;13.62;;;;;;;-0.27;73.48;100710.19;1779151;80;21017;-69
2021/01/12 04:44:39;;;;;;;16.42;11.88;;;;;;;-0.26;73.41;100708.91;1779145;80;21467;-69
2021/01/12 04:47:08;;;;;;;12.35;9.73;;;;;;;-0.25;73.38;100713.17;1779154;80;21669;-69
2021/01/12 04:49:36;;;;;;;13.05;9.20;;;;;;;-0.25;73.76;100710.61;1779061;80;20914;-69
2021/01/12 04:52:05;;;;;;;11.60;9.10;;;;;;;-0.22;74.11;100711.03;1779189;80;20933;-69
2021/01/12 04:54:34;;;;;;;12.13;9.98;;;;;;;-0.21;74.27;100705.91;1779128;80;21028;-69
2021/01/12 04:57:03;;;;;;;9.28;8.13;;;;;;;-0.17;74.25;100706.34;1779246;80;20993;-69
2021/01/12 04:59:32;;;;;;;9.75;8.08;;;;;;;-0.13;74.05;100701.64;1779149;80;21188;-69
2021/01/12 05:02:00;;;;;;;10.58;8.90;;;;;;;-0.09;73.84;100699.92;1779069;80;21012;-69
2021/01/12 05:04:34;;;;;;;11.63;9.20;;;;;;;-0.03;73.60;100703.76;1775807;80;20989;-69
2021/01/12 05:07:08;;;;;;;10.10;8.23;;;;;;;0.02;72.86;100699.88;1774597;80;21618;-69
2021/01/12 05:09:41;;;;;;;12.73;8.75;;;;;;;0.07;72.15;100692.61;1771006;81;20926;-69
2021/01/12 05:12:12;;;;;;;12.25;9.20;;;;;;;0.11;71.85;100699.43;1749923;81;21371;-69
2021/01/12 05:14:41;;;;;;;15.18;10.38;;;;;;;0.16;71.38;100696.86;1770892;81;20958;-69
2021/01/12 05:17:09;;;;;;;15.03;9.63;;;;;;;0.20;71.01;100692.16;1749673;81;21057;-68
2021/01/12 05:19:40;;;;;;;13.22;9.75;;;;;;;0.25;70.62;100689.15;1770978;81;21460;-69
2021/01/12 05:22:09;;;;;;;16.07;10.40;;;;;;;0.26;70.53;100690.42;1770967;81;21124;-69
2021/01/12 05:24:42;;;;;;;15.58;10.38;;;;;;;0.27;70.60;100680.61;1770997;81;22133;-69
2021/01/12 05:27:10;;;;;;;13.18;10.28;;;;;;;0.28;70.36;100681.03;1770830;81;21033;-69
2021/01/12 05:29:39;;;;;;;15.28;10.10;;;;;;;0.30;70.73;100673.34;1770925;81;20903;-69
2021/01/12 05:32:10;;;;;;;11.93;8.75;;;;;;;0.30;70.40;100674.62;1770876;80;20946;-69
2021/01/12 05:34:38;;;;;;;11.65;9.08;;;;;;;0.30;69.99;100678.46;1770969;81;20954;-69
2021/01/12 05:37:09;;;;;;;13.03;9.10;;;;;;;0.27;69.84;100678.05;1770912;81;22351;-68
2021/01/12 05:39:42;;;;;;;13.80;9.73;;;;;;;0.25;69.75;100674.63;1770811;81;20990;-67
2021/01/12 05:42:11;;;;;;;11.57;9.25;;;;;;;0.23;70.21;100671.66;1770904;80;21610;-69
2021/01/12 05:44:41;;;;;;;12.43;9.40;;;;;;;0.21;70.30;100669.53;1770874;81;21025;-69
2021/01/12 05:47:15;;;;;;;12.10;9.43;;;;;;;0.20;70.42;100667.39;1770899;80;20989;-69
2021/01/12 05:49:48;;;;;;;15.48;9.65;;;;;;;0.20;70.25;100665.27;1770925;81;21050;-69
2021/01/12 05:52:16;;;;;;;14.70;9.98;;;;;;;0.20;70.05;100663.98;1770035;80;20958;-69
2021/01/12 05:55:04;;;;;;;21.95;14.00;;;;;;;0.16;70.12;100663.56;1752672;80;20981;-69
2021/01/12 05:57:33;;;;;;;46.30;23.57;;;;;;;0.15;70.16;100658.02;1768674;78;21676;-67
2021/01/12 06:00:05;;;;;;;83.10;35.33;;;;;;;0.15;70.29;100659.30;1734265;81;21045;-68
2021/01/12 06:02:38;;;;;;;36.53;19.75;;;;;;;0.13;70.33;100664.43;1766209;80;22093;-68
2021/01/12 06:05:09;;;;;;;26.42;16.07;;;;;;;0.13;70.38;100661.02;1768723;79;21431;-69
2021/01/12 06:07:38;;;;;;;24.07;15.38;;;;;;;0.12;70.22;100660.59;1721989;82;21045;-67
2021/01/12 06:10:08;;;;;;;26.27;15.32;;;;;;;0.09;70.16;100654.20;1751911;80;21618;-70
2021/01/12 06:12:36;;;;;;;29.42;18.30;;;;;;;0.06;70.26;100652.50;1752750;80;21053;-69
2021/01/12 06:15:07;;;;;;;31.27;17.65;;;;;;;0.04;70.31;100652.94;1750742;81;21205;-71
2021/01/12 06:17:35;;;;;;;29.10;14.38;;;;;;;0.03;70.48;100650.37;1725760;82;21403;-70
2021/01/12 06:20:07;;;;;;;35.60;18.30;;;;;;;0.02;70.52;100658.91;1760805;80;21014;-68
2021/01/12 06:22:42;;;;;;;34.30;17.77;;;;;;;-0.03;70.54;100660.23;1744641;81;21072;-70
2021/01/12 06:25:11;;;;;;;30.90;15.50;;;;;;;-0.07;70.67;100662.38;1748038;80;21060;-68
2021/01/12 06:27:41;;;;;;;16.90;11.10;;;;;;;-0.12;70.91;100661.11;1755965;81;21372;-70
2021/01/12 06:30:10;;;;;;;15.63;11.70;;;;;;;-0.14;70.92;100661.97;1737318;80;21673;-71
2021/01/12 06:32:39;;;;;;;17.85;11.80;;;;;;;-0.14;71.08;100672.20;1750650;80;21113;-72
2021/01/12 06:35:09;;;;;;;25.62;13.83;;;;;;;-0.15;71.41;100670.50;1735095;80;21072;-71
2021/01/12 06:37:43;;;;;;;26.62;15.90;;;;;;;-0.17;71.61;100670.94;1721527;83;21710;-70
2021/01/12 06:40:12;;;;;;;23.45;14.33;;;;;;;-0.21;72.01;100668.80;1721688;82;22080;-72
2021/01/12 06:42:40;;;;;;;20.35;13.80;;;;;;;-0.21;72.28;100671.80;1737632;80;21419;-71
2021/01/12 06:45:10;;;;;;;21.52;13.65;;;;;;;-0.24;72.59;100674.36;1752024;82;21092;-71
2021/01/12 06:47:39;;;;;;;28.02;14.15;;;;;;;-0.25;72.83;100674.78;1751861;81;21088;-65
2021/01/12 06:50:11;;;;;;;20.75;14.50;;;;;;;-0.26;72.98;100682.03;1751802;81;21586;-70
2021/01/12 06:52:44;;;;;;;24.92;14.93;;;;;;;-0.28;73.19;100677.34;1751879;81;21360;-70
2021/01/12 06:55:15;;;;;;;28.98;16.95;;;;;;;-0.29;73.29;100679.91;1745556;80;21031;-70
2021/01/12 06:57:51;;;;;;;27.65;16.52;;;;;;;-0.32;73.61;100683.31;1743148;82;20945;-70
2021/01/12 07:00:20;;;;;;;28.15;15.58;;;;;;;-0.32;73.73;100688.86;1721953;83;21092;-69
2021/01/12 07:02:58;;;;;;;24.90;14.28;;;;;;;-0.35;73.85;100685.88;1732592;81;21049;-71
2021/01/12 07:05:45;;;;;;;22.82;14.80;;;;;;;-0.34;73.85;100685.03;1752313;81;21152;-69
2021/01/12 07:08:13;;;;;;;;;;;;;;;-0.35;73.95;100676.92;1754065;81;21117;-68
2021/01/12 07:10:45;;;;;;;33.40;18.00;;;;;;;-0.36;73.96;100674.79;1735285;80;20275;-70
2021/01/12 07:13:21;;;;;;;32.95;19.23;;;;;;;-0.39;74.13;100670.95;1771528;80;21082;-69
2021/01/12 07:15:51;;;;;;;45.33;26.27;;;;;;;-0.41;74.22;100671.84;1773864;79;20998;-71
2021/01/12 07:18:22;;;;;;;44.85;24.52;;;;;;;-0.41;74.47;100673.98;1782159;79;22659;-72
2021/01/12 07:20:50;;;;;;;41.33;23.55;;;;;;;-0.41;74.32;100671.42;1783088;79;21078;-72
2021/01/12 07:23:20;;;;;;;45.85;25.20;;;;;;;-0.41;74.37;100666.73;1767383;80;21114;-67
2021/01/12 07:25:50;;;;;;;40.55;24.02;;;;;;;-0.41;74.41;100673.98;1745769;81;21755;-65
2021/01/12 07:28:22;;;;;;;51.42;26.65;;;;;;;-0.42;74.61;100673.55;1789135;79;22224;-68
2021/01/12 07:30:53;;;;;;;51.65;26.65;;;;;;;-0.40;74.52;100670.98;1802481;79;21630;-68
2021/01/12 07:33:29;;;;;;;51.68;27.80;;;;;;;-0.40;74.59;100670.53;1758784;81;21035;-69
2021/01/12 07:35:58;;;;;;;57.13;28.50;;;;;;;-0.40;74.71;100667.16;1774488;79;20979;-69
2021/01/12 07:38:30;;;;;;;48.17;24.07;;;;;;;-0.40;74.85;100667.16;1786537;79;21108;-70
2021/01/12 07:41:00;;;;;;;47.00;23.87;;;;;;;-0.39;74.75;100665.84;1787132;79;21699;-69
2021/01/12 07:43:31;;;;;;;54.15;26.37;;;;;;;-0.38;74.72;100664.98;1786480;79;21369;-75
2021/01/12 07:46:02;;;;;;;47.98;23.65;;;;;;;-0.36;74.82;100664.98;1798022;78;21111;-72
2021/01/12 07:48:31;;;;;;;44.90;22.50;;;;;;;-0.35;75.02;100666.27;1802850;79;21057;-74
2021/01/12 07:51:01;;;;;;;46.92;22.37;;;;;;;-0.34;74.99;100660.72;1776124;79;21010;-74
2021/01/12 07:53:31;;;;;;;42.88;21.82;;;;;;;-0.31;75.02;100662.42;1781763;79;21192;-73
2021/01/12 07:56:00;;;;;;;38.17;21.07;;;;;;;-0.29;74.95;100660.28;1770225;81;21210;-69
2021/01/12 07:58:30;;;;;;;44.55;24.50;;;;;;;-0.27;75.01;100669.23;1769641;81;21073;-73
2021/01/12 08:00:59;;;;;;;45.17;24.47;;;;;;;-0.26;74.95;100664.12;1769912;81;21102;-72
2021/01/12 08:03:30;;;;;;;39.03;22.20;;;;;;;-0.24;75.12;100662.84;1757042;79;21034;-73
2021/01/12 08:06:04;;;;;;;48.68;24.92;;;;;;;-0.25;75.12;100656.87;1780137;79;21383;-74
2021/01/12 08:08:33;;;;;;;39.63;22.15;;;;;;;-0.22;75.16;100658.14;1789111;78;21001;-72
2021/01/12 08:11:01;;;;;;;37.83;21.25;;;;;;;-0.19;75.02;100656.86;1756726;81;21610;-71
2021/01/12 08:13:30;;;;;;;51.35;24.32;;;;;;;-0.17;74.96;100652.59;1747087;81;21044;-72
2021/01/12 08:16:03;;;;;;;40.40;21.85;;;;;;;-0.14;74.94;100651.73;1785672;79;21049;-74
2021/01/12 08:18:32;;;;;;;36.93;20.60;;;;;;;-0.12;74.78;100645.75;1751402;79;21628;-73
2021/01/12 08:21:01;;;;;;;45.58;23.83;;;;;;;-0.10;74.83;100645.75;1798688;79;21555;-72
2021/01/12 08:23:29;;;;;;;44.10;23.22;;;;;;;-0.10;74.68;100635.08;1798702;79;21085;-71
2021/01/12 08:25:58;;;;;;;37.25;22.42;;;;;;;-0.10;74.78;100631.24;1804243;79;21056;-68
2021/01/12 08:28:27;;;;;;;45.35;25.05;;;;;;;-0.08;74.82;100632.52;1769509;79;21611;-67
2021/01/12 08:30:56;;;;;;;44.05;24.45;;;;;;;-0.07;74.87;100632.94;1800674;79;21755;-67
2021/01/12 08:33:31;;;;;;;32.58;22.00;;;;;;;-0.07;74.72;100620.99;1803325;78;21077;-67
2021/01/12 08:36:11;;;;;;;38.67;24.75;;;;;;;-0.06;74.78;100626.54;1780407;80;22177;-67
2021/01/12 08:38:41;;;;;;;39.67;23.87;;;;;;;-0.03;74.81;100626.53;1791571;78;20978;-76
2021/01/12 08:41:10;;;;;;;34.38;22.67;;;;;;;0.01;75.69;100615.81;1782765;79;21026;-73
2021/01/12 08:43:40;;;;;;;38.45;25.50;;;;;;;0.07;75.24;100616.23;1812068;79;21113;-72
2021/01/12 08:46:08;;;;;;;38.83;25.05;;;;;;;0.09;74.87;100614.08;1775366;80;21191;-71
2021/01/12 08:48:38;;;;;;;43.38;28.05;;;;;;;0.11;74.68;100610.23;1781373;78;21112;-70
2021/01/12 08:51:18;;;;;;;47.67;27.85;;;;;;;0.13;74.52;100612.36;1780657;79;21136;-69
2021/01/12 08:53:46;;;;;;;37.03;23.75;;;;;;;0.14;74.41;100602.55;1801308;78;21628;-71
2021/01/12 08:56:14;;;;;;;39.10;26.55;;;;;;;0.13;74.33;100591.88;1809125;78;21336;-72
2021/01/12 08:58:43;;;;;;;39.67;26.68;;;;;;;0.15;74.33;100588.88;1751241;80;21338;-71
2021/01/12 09:01:14;;;;;;;38.55;24.90;;;;;;;0.14;74.30;100591.88;1796526;79;20975;-70
2021/01/12 09:03:44;;;;;;;37.80;23.70;;;;;;;0.15;74.20;100588.45;1744801;81;21053;-68
2021/01/12 09:06:21;;;;;;;35.68;22.45;;;;;;;0.16;74.11;100586.75;1776800;79;21086;-67
2021/01/12 09:08:51;;;;;;;40.28;24.23;;;;;;;0.16;73.91;100586.31;1794961;79;21588;-73
2021/01/12 09:11:20;;;;;;;37.78;23.90;;;;;;;0.15;73.84;100588.45;1788523;78;21823;-73
2021/01/12 09:13:49;;;;;;;36.63;23.30;;;;;;;0.16;73.88;100595.70;1773290;80;21023;-72
2021/01/12 09:16:20;;;;;;;33.88;22.22;;;;;;;0.16;73.89;100588.88;1791683;79;21076;-74
2021/01/12 09:18:49;;;;;;;32.70;21.42;;;;;;;0.17;73.65;100587.17;1793525;78;21089;-72
2021/01/12 09:21:19;;;;;;;32.85;21.17;;;;;;;0.18;73.47;100584.60;1793083;80;20990;-68
